KLIMATOLOGI DAS LIMBOTO HEPUHULAWA

Tanggal Temperature (oC) RH (%) PAN 'A' Kecepatan Angin (KM/hari) Sinar Matahari (%) Hujan Biasa (mm)
Max Min Rata-rata Temp Air Dlm Tangki (oC) Penguapan (mm)
2022-03-31 35 23.5 29.3 96 32.5 6 22.1 62.2 0
2022-03-30 32 23.5 27.8 92 29 1.2 15.7 14.1 0.2
2022-03-29 35 24.5 29.8 96 32 4.4 22.2 44.8 7.4
2022-03-28 35 24.5 29.8 92 31.5 5 27.1 63.8 0
2022-03-27 34 24 29 94 31 4.2 21.7 46.4 0.2
2022-03-26 34 23.5 28.8 93 30.5 4 17.8 58 0
2022-03-25 33 23 28 92 29.5 3 9.4 8.3 0
2022-03-24 33 24 28.5 93 29.5 2 12.7 16.6 0
2022-03-23 29.5 23 26.3 96 27.5 2.6 10.9 0.8 17.6
2022-03-22 34 24.5 29.3 95 31 2.2 20.2 39 8.2
2022-03-21 34 23.5 28.8 96 30.5 2.8 14.8 40.6 6.8
2022-03-20 30 23.5 26.8 96 27.5 1.4 14.4 0 23.4
2022-03-19 35.5 24 29.8 94 32 3.2 18.5 48.1 17.2
2022-03-18 33.5 24 28.8 94 31 2.6 11.5 35.7 19.6
2022-03-17 33.5 23.5 28.5 94 30.5 2.4 15.2 49.8 36.4
2022-03-16 34.5 23.5 29 95 31 3.8 20.1 41.5 9.8
2022-03-15 34.5 24.5 29.5 96 31 4.4 23.5 40.2 0.4
2022-03-14 34 23.5 28.8 96 31.5 4 15.1 34 0.01
2022-03-13 33.5 24 28.8 94 29.5 3 15.4 14.9 43
2022-03-12 36 25 30.5 92 33 6 30.3 54.8 0
2022-03-11 35 25 30 96 32.5 6 33.1 60.6 0
2022-03-10 30.5 24 27.3 96 31 5 28.7 61.4 0
2022-03-09 34 24 29 96 30.5 4 30 61.4 0.2
2022-03-08 32.5 23 27.8 92 29 2 20 29.9 0.01
2022-03-07 31.5 23 27.3 93 27.5 3 12.3 5.8 17
2022-03-06 34.5 24.5 29.5 96 31.5 3.7 26.7 44 0.2
2022-03-05 32.5 24 28.3 95 29.5 3.4 22.9 24.1 0.4
2022-03-04 35 24.5 29.8 94 32 4.8 27 50.6 12.8
2022-03-03 34.5 23.5 29 95 30.5 3.4 20.1 40.7 3.4
2022-03-02 35.5 24.5 30 96 32 3.6 24.1 59.8 1.6
2022-03-01 35.5 23.5 29.5 94 32.5 4 24.3 43.2 0